createdAt,value
2018-12-12T00:02:01.477Z,15.67
2018-12-12T00:04:33.915Z,15.80
2018-12-12T00:07:08.875Z,15.43
2018-12-12T00:09:41.303Z,15.90
2018-12-12T00:12:15.755Z,14.80
2018-12-12T00:14:49.631Z,14.63
2018-12-12T00:17:23.895Z,15.30
2018-12-12T00:19:56.285Z,15.20
2018-12-12T00:22:31.346Z,16.70
2018-12-12T00:25:05.727Z,16.83
2018-12-12T00:27:40.917Z,16.60
2018-12-12T00:30:15.118Z,17.23
2018-12-12T00:32:49.108Z,15.80
2018-12-12T00:35:23.362Z,15.30
2018-12-12T00:37:58.137Z,16.23
2018-12-12T00:40:30.833Z,17.77
2018-12-12T00:43:05.226Z,17.53
2018-12-12T00:45:39.392Z,16.63
2018-12-12T00:48:11.787Z,17.50
2018-12-12T00:53:16.261Z,17.53
2018-12-12T00:55:48.650Z,16.10
2018-12-12T00:58:23.379Z,16.70
2018-12-12T01:00:57.899Z,17.30
2018-12-12T01:03:31.860Z,17.00
2018-12-12T01:06:05.908Z,17.37
2018-12-12T01:08:38.590Z,17.67
2018-12-12T01:11:18.386Z,17.27
2018-12-12T01:13:52.851Z,17.60
2018-12-12T01:16:27.242Z,17.67
2018-12-12T01:19:01.366Z,17.67
2018-12-12T01:21:33.553Z,18.50
2018-12-12T01:24:08.281Z,18.37
2018-12-12T01:26:42.258Z,17.20
2018-12-12T01:29:16.318Z,17.80
2018-12-12T01:31:50.118Z,17.73
2018-12-12T01:34:24.307Z,18.23
2018-12-12T01:36:58.782Z,18.03
2018-12-12T01:39:33.240Z,18.67
2018-12-12T01:42:07.269Z,18.30
2018-12-12T01:44:41.266Z,19.50
2018-12-12T01:47:16.321Z,17.00
2018-12-12T01:49:51.054Z,18.10
2018-12-12T01:52:25.128Z,18.20
2018-12-12T01:57:30.495Z,20.25
2018-12-12T02:00:05.283Z,17.83
2018-12-12T02:02:39.404Z,18.27
2018-12-12T02:05:13.961Z,17.77
2018-12-12T02:07:50.187Z,18.27
2018-12-12T02:10:27.726Z,17.37
2018-12-12T02:13:10.638Z,17.33
2018-12-12T02:15:47.506Z,17.17
2018-12-12T02:18:24.071Z,17.47
2018-12-12T02:20:59.645Z,17.20
2018-12-12T02:23:37.017Z,17.60
2018-12-12T02:26:10.963Z,16.93
2018-12-12T02:28:44.773Z,17.23
2018-12-12T02:31:19.068Z,17.10
2018-12-12T02:33:51.392Z,17.43
2018-12-12T02:36:23.863Z,17.63
2018-12-12T02:38:58.343Z,17.83
2018-12-12T02:41:32.352Z,17.43
2018-12-12T02:44:06.618Z,17.93
2018-12-12T02:46:40.922Z,18.07
2018-12-12T02:49:15.050Z,17.97
2018-12-12T02:51:47.897Z,17.63
2018-12-12T02:54:21.933Z,18.93
2018-12-12T02:56:54.314Z,18.63
2018-12-12T02:59:28.849Z,18.40
2018-12-12T03:02:01.267Z,18.63
2018-12-12T03:04:35.696Z,17.87
2018-12-12T03:07:09.542Z,17.93
2018-12-12T03:09:43.737Z,18.40
2018-12-12T03:12:17.594Z,17.77
2018-12-12T03:14:51.806Z,17.40
2018-12-12T03:17:26.847Z,19.43
2018-12-12T03:20:01.304Z,19.10
2018-12-12T03:22:35.586Z,18.53
2018-12-12T03:25:10.114Z,20.20
2018-12-12T03:27:44.445Z,19.23
2018-12-12T03:30:16.886Z,19.23
2018-12-12T03:32:51.538Z,18.30
2018-12-12T03:35:25.650Z,19.77
2018-12-12T03:37:58.268Z,18.83
2018-12-12T03:40:33.093Z,18.17
2018-12-12T03:43:07.711Z,19.23
2018-12-12T03:45:41.564Z,19.13
2018-12-12T03:48:15.371Z,18.03
2018-12-12T03:50:49.948Z,19.30
2018-12-12T03:53:22.630Z,19.63
2018-12-12T03:55:57.259Z,17.63
2018-12-12T04:01:02.641Z,18.47
2018-12-12T04:03:35.384Z,20.07
2018-12-12T04:06:09.445Z,18.43
2018-12-12T04:08:43.415Z,17.37
2018-12-12T04:11:17.516Z,17.67
2018-12-12T04:13:51.441Z,17.73
2018-12-12T04:16:25.590Z,18.57
2018-12-12T04:19:00.112Z,17.70
2018-12-12T04:21:34.640Z,18.40
2018-12-12T04:24:09.111Z,17.87
2018-12-12T04:26:41.365Z,17.43
2018-12-12T04:29:15.304Z,18.97
2018-12-12T04:31:49.210Z,17.37
2018-12-12T04:34:24.091Z,18.30
2018-12-12T04:36:58.269Z,20.30
2018-12-12T04:39:32.291Z,19.27
2018-12-12T04:42:06.335Z,19.17
2018-12-12T04:44:40.354Z,19.00
2018-12-12T04:47:12.767Z,19.13
2018-12-12T04:49:45.433Z,20.00
2018-12-12T04:52:20.090Z,18.53
2018-12-12T04:54:54.436Z,19.37
2018-12-12T04:57:29.039Z,18.73
2018-12-12T05:00:03.074Z,21.20
2018-12-12T05:02:37.420Z,19.50
2018-12-12T05:05:11.610Z,18.80
2018-12-12T05:07:45.749Z,19.20
2018-12-12T05:10:18.035Z,19.03
2018-12-12T05:12:50.408Z,19.60
2018-12-12T05:15:23.029Z,18.97
2018-12-12T05:17:57.369Z,17.63
2018-12-12T05:20:28.961Z,18.10
2018-12-12T05:23:06.275Z,17.70
2018-12-12T05:25:40.417Z,19.90
2018-12-12T05:28:14.670Z,20.43
2018-12-12T05:30:49.685Z,19.10
2018-12-12T05:33:24.588Z,19.17
2018-12-12T05:35:57.282Z,19.23
2018-12-12T05:38:33.738Z,17.67
2018-12-12T05:41:06.605Z,19.10
2018-12-12T05:43:40.667Z,20.67
2018-12-12T05:46:16.549Z,18.53
2018-12-12T05:48:51.379Z,18.87
2018-12-12T05:51:25.411Z,23.40
2018-12-12T05:54:01.515Z,21.47
2018-12-12T05:56:34.139Z,19.77
2018-12-12T05:59:09.398Z,18.63
2018-12-12T06:01:44.654Z,21.57
2018-12-12T06:04:18.649Z,18.17
2018-12-12T06:06:54.234Z,19.77
2018-12-12T06:09:28.994Z,18.63
2018-12-12T06:12:02.840Z,20.62
2018-12-12T06:14:36.995Z,19.10
2018-12-12T06:17:11.105Z,23.10
2018-12-12T06:19:45.973Z,19.60
2018-12-12T06:22:21.098Z,19.07
2018-12-12T06:24:55.254Z,19.60
2018-12-12T06:27:29.506Z,18.43
2018-12-12T06:30:06.503Z,16.47
2018-12-12T06:32:41.265Z,18.90
2018-12-12T06:35:16.158Z,21.00
2018-12-12T06:37:51.612Z,18.77
2018-12-12T06:40:26.029Z,18.63
2018-12-12T06:43:01.073Z,18.53
2018-12-12T06:45:37.366Z,20.77
2018-12-12T06:48:12.443Z,19.60
2018-12-12T06:50:45.119Z,20.13
2018-12-12T06:53:21.476Z,19.80
2018-12-12T06:55:57.652Z,18.37
2018-12-12T06:58:34.526Z,20.60
2018-12-12T07:01:11.106Z,18.83
2018-12-12T07:03:45.866Z,20.80
2018-12-12T07:06:22.669Z,19.03
2018-12-12T07:08:59.060Z,17.43
2018-12-12T07:11:35.357Z,19.77
2018-12-12T07:14:12.573Z,19.00
2018-12-12T07:16:49.477Z,20.17
2018-12-12T07:19:26.716Z,18.77
2018-12-12T07:22:03.344Z,19.87
2018-12-12T07:24:39.765Z,19.57
2018-12-12T07:27:16.796Z,19.53
2018-12-12T07:29:53.734Z,19.07
2018-12-12T07:32:30.248Z,19.67
2018-12-12T07:35:07.197Z,18.67
2018-12-12T07:37:44.231Z,19.27
2018-12-12T07:40:20.288Z,19.50
2018-12-12T07:42:56.592Z,20.37
2018-12-12T07:45:32.609Z,19.50
2018-12-12T07:48:09.047Z,19.70
2018-12-12T07:50:45.225Z,18.70
2018-12-12T07:53:21.672Z,19.00
2018-12-12T07:55:58.762Z,19.80
2018-12-12T07:58:35.552Z,19.43
2018-12-12T08:01:12.415Z,19.90
2018-12-12T08:03:49.463Z,19.70
2018-12-12T08:06:24.412Z,19.67
2018-12-12T08:09:01.440Z,19.10
2018-12-12T08:11:37.788Z,20.40
2018-12-12T08:14:13.974Z,20.87
2018-12-12T08:16:50.640Z,21.90
2018-12-12T08:19:27.632Z,24.13
2018-12-12T08:22:06.287Z,21.60
2018-12-12T08:24:42.116Z,23.63
2018-12-12T08:27:16.731Z,22.37
2018-12-12T08:29:52.163Z,24.00
2018-12-12T08:32:26.616Z,23.07
2018-12-12T08:35:01.384Z,21.77
2018-12-12T08:37:36.418Z,21.47
2018-12-12T08:40:11.979Z,25.93
2018-12-12T08:42:46.966Z,22.37
2018-12-12T08:45:21.930Z,22.70
2018-12-12T08:47:56.231Z,22.13
2018-12-12T08:50:32.138Z,22.63
2018-12-12T08:53:07.559Z,21.53
2018-12-12T08:55:43.926Z,23.07
2018-12-12T08:58:16.400Z,25.07
2018-12-12T09:00:51.336Z,23.63
2018-12-12T09:03:24.774Z,23.83
2018-12-12T09:05:59.329Z,21.60
2018-12-12T09:08:33.592Z,21.00
2018-12-12T09:11:09.852Z,22.20
2018-12-12T09:13:45.464Z,22.40
2018-12-12T09:16:20.474Z,20.97
2018-12-12T09:18:55.329Z,21.03
2018-12-12T09:21:31.385Z,23.53
2018-12-12T09:24:05.828Z,21.63
2018-12-12T09:26:40.746Z,21.60
2018-12-12T09:29:14.885Z,21.17
2018-12-12T09:31:47.592Z,22.60
2018-12-12T09:34:21.867Z,22.00
2018-12-12T09:36:56.192Z,21.87
2018-12-12T09:39:28.764Z,22.80
2018-12-12T09:42:04.258Z,20.87
2018-12-12T09:44:36.702Z,21.83
2018-12-12T09:47:11.146Z,22.33
2018-12-12T09:49:45.218Z,20.50
2018-12-12T09:52:19.346Z,23.47
2018-12-12T09:54:52.009Z,25.67
2018-12-12T09:57:26.847Z,18.00
2018-12-12T10:00:01.276Z,17.87
2018-12-12T10:02:34.028Z,16.97
2018-12-12T10:05:08.756Z,20.20
2018-12-12T10:07:42.901Z,18.67
2018-12-12T10:10:17.033Z,19.00
2018-12-12T10:12:51.926Z,17.07
2018-12-12T10:15:26.196Z,16.90
2018-12-12T10:17:58.761Z,16.47
2018-12-12T10:20:33.163Z,19.53
2018-12-12T10:23:05.665Z,19.83
2018-12-12T10:25:40.929Z,18.53
2018-12-12T10:28:15.291Z,18.33
2018-12-12T10:30:47.729Z,15.53
2018-12-12T10:33:21.990Z,17.00
2018-12-12T10:35:56.668Z,16.63
2018-12-12T10:38:31.387Z,15.03
2018-12-12T10:41:06.016Z,15.47
2018-12-12T10:43:38.458Z,14.13
2018-12-12T10:46:13.258Z,14.77
2018-12-12T10:48:48.116Z,17.73
2018-12-12T10:51:22.382Z,17.63
2018-12-12T10:53:55.090Z,17.23
2018-12-12T10:56:29.539Z,18.30
2018-12-12T10:59:04.495Z,19.27
2018-12-12T11:01:44.481Z,17.13
2018-12-12T11:04:19.255Z,18.00
2018-12-12T11:06:53.670Z,16.10
2018-12-12T11:09:27.522Z,15.63
2018-12-12T11:14:32.400Z,14.73
2018-12-12T11:17:06.314Z,15.57
2018-12-12T11:19:40.554Z,16.67
2018-12-12T11:22:12.958Z,14.37
2018-12-12T11:24:47.240Z,13.63
2018-12-12T11:27:21.637Z,12.87
2018-12-12T11:29:55.452Z,11.77
2018-12-12T11:32:29.338Z,12.00
2018-12-12T11:35:04.080Z,11.87
2018-12-12T11:37:40.395Z,11.80
2018-12-12T11:40:15.091Z,11.80
2018-12-12T11:42:50.465Z,12.03
2018-12-12T11:45:27.920Z,11.10
2018-12-12T11:48:02.633Z,11.47
2018-12-12T11:50:37.453Z,11.63
2018-12-12T11:53:12.510Z,11.00
2018-12-12T11:55:47.188Z,11.53
2018-12-12T11:58:23.809Z,11.23
2018-12-12T12:00:59.901Z,11.50
2018-12-12T12:03:35.494Z,10.80
2018-12-12T12:06:11.789Z,10.47
2018-12-12T12:08:47.914Z,9.90
2018-12-12T12:11:23.928Z,10.00
2018-12-12T12:16:31.238Z,11.20
2018-12-12T12:19:08.015Z,10.40
2018-12-12T12:21:44.586Z,11.03
2018-12-12T12:24:21.283Z,10.60
2018-12-12T12:26:56.193Z,11.30
2018-12-12T12:29:31.703Z,10.97
2018-12-12T12:32:07.743Z,11.33
2018-12-12T12:34:43.875Z,11.27
2018-12-12T12:37:20.014Z,13.43
2018-12-12T12:39:57.239Z,12.50
2018-12-12T12:42:33.658Z,12.40
2018-12-12T12:45:08.643Z,12.00
2018-12-12T12:47:44.652Z,11.50
2018-12-12T12:50:20.742Z,11.37
2018-12-12T12:52:57.377Z,11.57
2018-12-12T12:55:34.469Z,10.83
2018-12-12T12:58:11.379Z,12.20
2018-12-12T13:00:48.030Z,11.87
2018-12-12T13:03:24.381Z,11.73
2018-12-12T13:05:58.840Z,11.90
2018-12-12T13:08:33.485Z,11.73
2018-12-12T13:11:14.845Z,11.13
2018-12-12T13:13:48.550Z,11.37
2018-12-12T13:16:23.476Z,11.63
2018-12-12T13:21:30.177Z,10.17
2018-12-12T13:24:05.341Z,9.77
2018-12-12T13:26:39.633Z,8.30
2018-12-12T13:29:13.831Z,8.00
2018-12-12T13:31:47.770Z,8.23
2018-12-12T13:34:22.316Z,8.40
2018-12-12T13:36:59.026Z,8.63
2018-12-12T13:39:33.663Z,7.50
2018-12-12T13:42:07.967Z,7.67
2018-12-12T13:44:42.216Z,5.73
2018-12-12T13:47:17.427Z,4.20
2018-12-12T13:49:52.129Z,3.93
2018-12-12T13:52:25.520Z,4.17
2018-12-12T13:55:02.799Z,3.60
2018-12-12T13:57:37.191Z,4.10
2018-12-12T14:00:14.184Z,5.10
2018-12-12T14:02:49.632Z,4.63
2018-12-12T14:05:23.904Z,4.07
2018-12-12T14:07:59.051Z,4.30
2018-12-12T14:10:34.672Z,4.10
2018-12-12T14:13:07.432Z,3.50
2018-12-12T14:15:42.784Z,3.60
2018-12-12T14:18:17.534Z,3.80
2018-12-12T14:28:24.711Z,5.47
2018-12-12T14:31:00.655Z,4.50
2018-12-12T14:33:36.650Z,4.70
2018-12-12T14:36:12.506Z,4.33
2018-12-12T14:38:46.990Z,4.13
2018-12-12T14:41:22.800Z,4.43
2018-12-12T14:43:58.914Z,4.23
2018-12-12T14:46:35.070Z,4.47
2018-12-12T14:49:12.255Z,4.53
2018-12-12T14:51:49.281Z,4.20
2018-12-12T14:54:26.448Z,3.73
2018-12-12T14:57:03.303Z,3.40
2018-12-12T14:59:37.731Z,3.13
2018-12-12T15:02:13.420Z,3.33
2018-12-12T15:04:47.913Z,3.27
2018-12-12T15:07:22.733Z,3.50
2018-12-12T15:09:56.080Z,3.07
2018-12-12T15:12:30.721Z,3.17
2018-12-12T15:15:07.857Z,3.20
2018-12-12T15:17:42.593Z,4.10
2018-12-12T15:20:19.042Z,7.67
2018-12-12T15:22:54.110Z,8.70
2018-12-12T15:25:30.578Z,8.47
2018-12-12T15:28:05.935Z,7.87
2018-12-12T15:30:41.116Z,8.60
2018-12-12T15:33:17.345Z,8.40
2018-12-12T15:35:51.517Z,9.37
2018-12-12T15:38:24.143Z,10.23
2018-12-12T15:40:58.459Z,11.17
2018-12-12T15:43:34.615Z,10.93
2018-12-12T15:46:10.368Z,11.33
2018-12-12T15:48:44.535Z,11.27
2018-12-12T15:51:19.490Z,11.17
2018-12-12T15:53:54.326Z,12.10
2018-12-12T15:56:29.919Z,12.53
2018-12-12T15:59:03.814Z,12.07
2018-12-12T16:01:37.969Z,11.73
2018-12-12T16:04:10.571Z,11.70
2018-12-12T16:06:45.066Z,12.70
2018-12-12T16:09:20.702Z,12.10
2018-12-12T16:11:53.348Z,12.23
2018-12-12T16:14:29.531Z,11.70
2018-12-12T16:17:04.865Z,12.37
2018-12-12T16:19:40.802Z,12.13
2018-12-12T16:22:18.076Z,14.93
2018-12-12T16:24:53.202Z,14.23
2018-12-12T16:27:27.639Z,15.90
2018-12-12T16:32:34.918Z,14.40
2018-12-12T16:35:07.727Z,14.93
2018-12-12T16:37:42.153Z,13.87
2018-12-12T16:40:16.442Z,13.50
2018-12-12T16:42:51.214Z,13.43
2018-12-12T16:45:23.929Z,12.57
2018-12-12T16:47:59.971Z,13.57
2018-12-12T16:50:34.918Z,13.83
2018-12-12T16:53:09.391Z,13.10
2018-12-12T16:55:45.336Z,12.43
2018-12-12T16:58:22.875Z,12.03
2018-12-12T17:00:59.844Z,13.07
2018-12-12T17:03:36.443Z,14.60
2018-12-12T17:06:12.186Z,15.17
2018-12-12T17:08:48.486Z,13.27
2018-12-12T17:11:25.110Z,11.70
2018-12-12T17:14:00.703Z,11.67
2018-12-12T17:16:37.161Z,12.67
2018-12-12T17:19:11.662Z,12.53
2018-12-12T17:21:46.182Z,11.53
2018-12-12T17:24:20.039Z,11.57
2018-12-12T17:26:53.902Z,11.60
2018-12-12T17:29:27.892Z,12.03
2018-12-12T17:34:35.779Z,12.30
2018-12-12T17:37:11.754Z,12.60
2018-12-12T17:39:46.515Z,13.30
2018-12-12T17:42:21.068Z,11.57
2018-12-12T17:44:55.820Z,11.90
2018-12-12T17:47:29.954Z,12.00
2018-12-12T17:50:02.644Z,13.03
2018-12-12T17:52:37.258Z,15.40
2018-12-12T17:55:11.915Z,15.37
2018-12-12T17:57:46.130Z,16.83
2018-12-12T18:00:20.242Z,15.67
2018-12-12T18:02:52.702Z,15.90
2018-12-12T18:05:27.440Z,16.43
2018-12-12T18:08:01.414Z,16.63
2018-12-12T18:10:35.709Z,15.50
2018-12-12T18:13:08.138Z,15.37
2018-12-12T18:15:42.486Z,14.33
2018-12-12T18:18:16.641Z,13.73
2018-12-12T18:20:50.635Z,12.27
2018-12-12T18:23:24.941Z,12.17
2018-12-12T18:26:07.772Z,13.27
2018-12-12T18:28:42.348Z,11.50
2018-12-12T18:31:15.063Z,12.83
2018-12-12T18:33:49.112Z,12.60
2018-12-12T18:36:23.267Z,10.87
2018-12-12T18:38:57.962Z,6.57
2018-12-12T18:41:32.103Z,5.23
2018-12-12T18:44:06.319Z,4.60
2018-12-12T18:46:41.264Z,4.60
2018-12-12T18:49:17.729Z,4.80
2018-12-12T18:51:53.830Z,4.67
2018-12-12T18:54:31.613Z,5.00
2018-12-12T18:57:07.706Z,4.30
2018-12-12T18:59:43.443Z,4.80
2018-12-12T19:02:18.597Z,4.90
2018-12-12T19:04:52.362Z,5.17
2018-12-12T19:07:26.316Z,5.03
2018-12-12T19:10:01.797Z,4.77
2018-12-12T19:12:37.198Z,4.50
2018-12-12T19:15:11.290Z,4.30
2018-12-12T19:17:45.218Z,4.50
2018-12-12T19:20:19.456Z,4.00
2018-12-12T19:22:53.997Z,4.20
2018-12-12T19:25:27.932Z,4.40
2018-12-12T19:28:02.216Z,4.20
2018-12-12T19:30:36.321Z,4.30
2018-12-12T19:33:11.214Z,4.07
2018-12-12T19:35:45.994Z,3.60
2018-12-12T19:38:20.769Z,4.10
2018-12-12T19:40:54.622Z,3.83
2018-12-12T19:43:28.691Z,3.50
2018-12-12T19:46:02.918Z,3.40
2018-12-12T19:48:37.621Z,3.80
2018-12-12T19:51:11.606Z,3.60
2018-12-12T19:53:45.813Z,3.60
2018-12-12T19:56:20.622Z,2.90
2018-12-12T19:58:54.638Z,3.27
2018-12-12T20:01:28.882Z,2.90
2018-12-12T20:04:03.226Z,3.00
2018-12-12T20:06:38.430Z,3.10
2018-12-12T20:09:13.847Z,3.27
2018-12-12T20:11:48.114Z,4.10
2018-12-12T20:14:23.062Z,3.70
2018-12-12T20:16:57.537Z,3.63
2018-12-12T20:19:31.973Z,3.57
2018-12-12T20:22:06.684Z,4.10
2018-12-12T20:24:40.919Z,3.80
2018-12-12T20:27:14.890Z,3.93
2018-12-12T20:29:49.154Z,3.83
2018-12-12T20:32:23.293Z,3.80
2018-12-12T20:34:57.855Z,3.60
2018-12-12T20:40:02.780Z,4.00
2018-12-12T20:42:36.747Z,4.10
2018-12-12T20:45:10.734Z,3.90
2018-12-12T20:47:44.726Z,3.47
2018-12-12T20:50:18.835Z,4.17
2018-12-12T20:52:51.441Z,3.77
2018-12-12T20:55:25.674Z,3.63
2018-12-12T20:58:00.147Z,3.70
2018-12-12T21:00:35.130Z,3.97
2018-12-12T21:03:19.401Z,3.87
2018-12-12T21:05:54.678Z,4.30
2018-12-12T21:08:29.505Z,4.80
2018-12-12T21:11:04.036Z,4.90
2018-12-12T21:13:36.445Z,4.37
2018-12-12T21:16:08.809Z,4.90
2018-12-12T21:18:44.059Z,4.97
2018-12-12T21:21:18.171Z,5.07
2018-12-12T21:23:50.478Z,5.13
2018-12-12T21:26:25.196Z,5.17
2018-12-12T21:28:59.334Z,4.90
2018-12-12T21:31:33.579Z,5.03
2018-12-12T21:34:05.896Z,5.30
2018-12-12T21:36:40.249Z,5.80
2018-12-12T21:39:14.091Z,5.40
2018-12-12T21:41:48.257Z,5.17
2018-12-12T21:44:22.196Z,4.63
2018-12-12T21:46:56.154Z,5.33
2018-12-12T21:49:30.151Z,5.07
2018-12-12T21:52:04.154Z,5.43
2018-12-12T21:54:36.661Z,5.10
2018-12-12T21:57:08.830Z,5.60
2018-12-12T21:59:41.124Z,5.23
2018-12-12T22:02:15.617Z,5.40
2018-12-12T22:04:49.778Z,5.13
2018-12-12T22:07:23.814Z,5.13
2018-12-12T22:09:57.965Z,4.97
2018-12-12T22:12:31.974Z,5.03
2018-12-12T22:15:06.267Z,5.53
2018-12-12T22:17:40.796Z,5.07
2018-12-12T22:20:14.857Z,4.83
2018-12-12T22:22:48.723Z,5.60
2018-12-12T22:25:22.629Z,5.00
2018-12-12T22:27:56.424Z,5.03
2018-12-12T22:30:30.567Z,5.27
2018-12-12T22:33:04.663Z,5.20
2018-12-12T22:35:39.095Z,5.40
2018-12-12T22:38:13.172Z,5.50
2018-12-12T22:40:45.655Z,5.30
2018-12-12T22:43:19.934Z,5.07
2018-12-12T22:45:53.824Z,5.40
2018-12-12T22:48:27.816Z,5.37
2018-12-12T22:51:00.595Z,5.43
2018-12-12T22:53:34.910Z,6.23
2018-12-12T22:56:07.369Z,5.20
2018-12-12T22:58:41.835Z,4.90
2018-12-12T23:01:21.353Z,5.33
2018-12-12T23:03:56.101Z,5.83
2018-12-12T23:06:30.643Z,5.93
2018-12-12T23:09:07.974Z,5.57
2018-12-12T23:11:40.439Z,5.10
2018-12-12T23:14:14.892Z,5.83
2018-12-12T23:16:48.913Z,5.30
2018-12-12T23:19:22.807Z,6.03
2018-12-12T23:21:56.729Z,6.03
2018-12-12T23:24:30.735Z,5.60
2018-12-12T23:27:04.882Z,6.13
2018-12-12T23:29:39.032Z,5.90
2018-12-12T23:32:11.481Z,6.33
2018-12-12T23:34:45.940Z,5.73
2018-12-12T23:37:19.838Z,6.00
2018-12-12T23:39:53.974Z,5.20
2018-12-12T23:42:25.795Z,5.90
2018-12-12T23:44:59.879Z,5.77
2018-12-12T23:47:32.123Z,5.70
2018-12-12T23:50:06.930Z,5.80
2018-12-12T23:52:39.411Z,5.80
2018-12-12T23:55:13.254Z,6.10
2018-12-12T23:57:47.685Z,6.10
